Terminal Aerodrome Forecast
Issued by NWS Sterling, VA

Current Version | Previous Version | Graphics & Text | Print | Product List | Glossary On
Versions: 1 2 3 4 5 6 7 8 9 10 11 12 13 14 15 16 17 18 19 20
000
FTUS41 KLWX 242100 AAA
TAFDCA
TAF AMD
KDCA 242100Z 2421/2518 02010KT P6SM BKN070
     FM242300 09007KT P6SM SCT070
     FM250100 VRB03KT P6SM FEW250
     FM251400 06006KT P6SM FEW250=

USA.gov is the U.S. government's official web portal to all federal, state and local government web resources and services.